Time;durP1;ratioP1;P1;durP2;ratioP2;P2;SDS_P1;SDS_P2;PMS_P1;PMS_P2;Temp;Humidity;BMP_temperature;BMP_pressure;BME280_temperature;BME280_humidity;BME280_pressure;Samples;Min_cycle;Max_cycle;Signal;HPM_P1;HPM_P2
2024/01/08 00:01:28;;;;;;;6.95;3.88;;;;;;;;;;4797861;29;20082;-79
2024/01/08 00:03:55;;;;;;;7.13;4.30;;;;;;;;;;4818539;29;20325;-79
2024/01/08 00:06:21;;;;;;;5.88;4.15;;;;;;;;;;4799840;29;20070;-79
2024/01/08 00:08:48;;;;;;;5.40;4.20;;;;;;;;;;4818237;29;20084;-79
2024/01/08 00:11:14;;;;;;;6.10;4.65;;;;;;;;;;4799485;29;20055;-79
2024/01/08 00:13:41;;;;;;;5.95;4.57;;;;;;;;;;4790272;29;20086;-79
2024/01/08 00:16:07;;;;;;;5.30;4.40;;;;;;;;;;4799059;29;20051;-78
2024/01/08 00:18:34;;;;;;;5.95;4.30;;;;;;;;;;4792144;29;20050;-79
2024/01/08 00:21:02;;;;;;;5.60;4.13;;;;;;;;;;4800181;29;20392;-80
2024/01/08 00:23:30;;;;;;;5.13;3.40;;;;;;;;;;4794141;29;20085;-79
2024/01/08 00:25:57;;;;;;;6.38;4.10;;;;;;;;;;4810160;29;20070;-80
2024/01/08 00:28:25;;;;;;;5.47;4.07;;;;;;;;;;4795409;29;20086;-79
2024/01/08 00:30:52;;;;;;;5.10;3.80;;;;;;;;;;4793966;29;20119;-78
2024/01/08 00:33:19;;;;;;;6.40;4.40;;;;;;;;;;4798172;29;20161;-79
2024/01/08 00:35:46;;;;;;;7.70;3.63;;;;;;;;;;4792553;29;20066;-80
2024/01/08 00:38:12;;;;;;;5.97;4.30;;;;;;;;;;4793807;29;20051;-81
2024/01/08 00:40:39;;;;;;;7.90;4.20;;;;;;;;;;4801704;29;20153;-79
2024/01/08 00:43:05;;;;;;;6.47;3.92;;;;;;;;;;4802881;29;20059;-79
2024/01/08 00:45:32;;;;;;;5.32;3.30;;;;;;;;;;4797752;29;20062;-79
2024/01/08 00:47:58;;;;;;;5.93;4.15;;;;;;;;;;4793149;29;20141;-74
2024/01/08 00:50:26;;;;;;;6.43;4.30;;;;;;;;;;4798843;29;20159;-78
2024/01/08 00:52:53;;;;;;;5.70;3.83;;;;;;;;;;4795095;29;20057;-78
2024/01/08 00:55:19;;;;;;;5.97;3.70;;;;;;;;;;4796671;29;20316;-78
2024/01/08 00:57:46;;;;;;;7.97;3.90;;;;;;;;;;4794848;29;20054;-78
2024/01/08 01:00:12;;;;;;;4.32;3.05;;;;;;;;;;4790654;29;20577;-79
2024/01/08 01:02:40;;;;;;;6.35;3.70;;;;;;;;;;4812960;29;20066;-78
2024/01/08 01:05:07;;;;;;;6.25;4.05;;;;;;;;;;4793742;29;20094;-79
2024/01/08 01:07:34;;;;;;;6.18;3.40;;;;;;;;;;4798203;29;20062;-79
2024/01/08 01:10:00;;;;;;;5.53;3.75;;;;;;;;;;4794493;29;20046;-79
2024/01/08 01:12:27;;;;;;;6.00;3.70;;;;;;;;;;4801122;29;20051;-79
2024/01/08 01:14:54;;;;;;;4.75;3.03;;;;;;;;;;4808163;29;20613;-78
2024/01/08 01:17:21;;;;;;;6.05;3.90;;;;;;;;;;4808139;29;20065;-77
2024/01/08 01:19:47;;;;;;;6.90;4.07;;;;;;;;;;4796551;29;20568;-78
2024/01/08 01:22:14;;;;;;;5.50;3.17;;;;;;;;;;4808277;29;20423;-78
2024/01/08 01:24:41;;;;;;;5.20;3.88;;;;;;;;;;4795576;29;20059;-78
2024/01/08 01:27:08;;;;;;;9.07;4.47;;;;;;;;;;4811686;29;20054;-78
2024/01/08 01:29:35;;;;;;;10.73;3.97;;;;;;;;;;4798637;29;20066;-78
2024/01/08 01:32:02;;;;;;;7.45;3.80;;;;;;;;;;4804105;29;20531;-79
2024/01/08 01:34:29;;;;;;;5.75;3.80;;;;;;;;;;4779579;29;20078;-79
2024/01/08 01:36:55;;;;;;;6.22;3.88;;;;;;;;;;4801469;29;20839;-79
2024/01/08 01:39:22;;;;;;;4.95;3.30;;;;;;;;;;4814100;29;20087;-79
2024/01/08 01:41:50;;;;;;;6.60;3.72;;;;;;;;;;4812891;29;20055;-79
2024/01/08 01:44:17;;;;;;;6.72;3.80;;;;;;;;;;4801943;29;20053;-79
2024/01/08 01:46:44;;;;;;;7.35;3.58;;;;;;;;;;4811806;29;20146;-80
2024/01/08 01:49:11;;;;;;;6.22;4.25;;;;;;;;;;4803759;29;20119;-79
2024/01/08 01:51:39;;;;;;;6.57;4.33;;;;;;;;;;4799174;29;20576;-79
2024/01/08 01:54:06;;;;;;;6.68;3.88;;;;;;;;;;4807144;29;20054;-79
2024/01/08 01:56:33;;;;;;;5.65;3.65;;;;;;;;;;4803318;29;20115;-79
2024/01/08 01:59:01;;;;;;;6.95;4.25;;;;;;;;;;4796362;29;20114;-79
2024/01/08 02:01:28;;;;;;;7.25;3.83;;;;;;;;;;4803507;29;20078;-79
2024/01/08 02:03:55;;;;;;;6.80;3.95;;;;;;;;;;4811495;29;20058;-78
2024/01/08 02:06:23;;;;;;;5.93;3.83;;;;;;;;;;4798114;29;20086;-79
2024/01/08 02:08:51;;;;;;;6.60;4.20;;;;;;;;;;4798814;29;20141;-79
2024/01/08 02:11:18;;;;;;;7.35;4.22;;;;;;;;;;4810742;29;20322;-79
2024/01/08 02:13:45;;;;;;;6.50;4.00;;;;;;;;;;4816808;29;20483;-78
2024/01/08 02:16:11;;;;;;;6.28;3.72;;;;;;;;;;4798023;29;20077;-78
2024/01/08 02:18:38;;;;;;;6.03;3.85;;;;;;;;;;4816567;29;20062;-78
2024/01/08 02:21:04;;;;;;;8.77;4.00;;;;;;;;;;4795129;29;20076;-78
2024/01/08 02:23:31;;;;;;;7.68;4.40;;;;;;;;;;4796065;29;20047;-78
2024/01/08 02:25:58;;;;;;;6.68;4.07;;;;;;;;;;4801835;29;20061;-78
2024/01/08 02:28:24;;;;;;;7.30;3.90;;;;;;;;;;4810971;29;20051;-78
2024/01/08 02:30:51;;;;;;;8.40;4.45;;;;;;;;;;4802001;29;20132;-78
2024/01/08 02:33:17;;;;;;;5.88;4.03;;;;;;;;;;4796719;29;20077;-78
2024/01/08 02:35:44;;;;;;;8.40;3.85;;;;;;;;;;4812484;29;20061;-78
2024/01/08 02:38:11;;;;;;;8.95;3.95;;;;;;;;;;4797140;29;20133;-78
2024/01/08 02:40:37;;;;;;;7.63;4.32;;;;;;;;;;4797254;29;20141;-78
2024/01/08 02:43:04;;;;;;;7.63;4.35;;;;;;;;;;4815427;29;20154;-78
2024/01/08 02:45:31;;;;;;;7.53;4.53;;;;;;;;;;4809651;29;20127;-78
2024/01/08 02:47:58;;;;;;;8.77;3.97;;;;;;;;;;4800723;29;20740;-77
2024/01/08 02:50:25;;;;;;;7.72;4.18;;;;;;;;;;4782416;29;20059;-78
2024/01/08 02:52:51;;;;;;;8.23;4.80;;;;;;;;;;4799120;29;20054;-77
2024/01/08 02:55:18;;;;;;;6.63;3.88;;;;;;;;;;4802092;29;20135;-78
2024/01/08 02:57:45;;;;;;;6.78;3.78;;;;;;;;;;4809274;29;20058;-78
2024/01/08 03:00:12;;;;;;;6.05;3.78;;;;;;;;;;4801868;29;20476;-77
2024/01/08 03:02:38;;;;;;;7.60;4.32;;;;;;;;;;4809096;29;20878;-77
2024/01/08 03:05:05;;;;;;;10.02;4.32;;;;;;;;;;4809619;29;20104;-77
2024/01/08 03:07:31;;;;;;;8.27;4.80;;;;;;;;;;4799438;29;20094;-78
2024/01/08 03:09:58;;;;;;;7.13;4.15;;;;;;;;;;4786165;29;20552;-77
2024/01/08 03:12:25;;;;;;;8.93;4.22;;;;;;;;;;4800590;29;20051;-77
2024/01/08 03:14:52;;;;;;;7.85;3.85;;;;;;;;;;4795527;29;20157;-77
2024/01/08 03:17:18;;;;;;;6.60;3.70;;;;;;;;;;4797743;29;20063;-77
2024/01/08 03:19:45;;;;;;;6.55;4.00;;;;;;;;;;4797261;29;20145;-78
2024/01/08 03:22:11;;;;;;;9.13;4.18;;;;;;;;;;4811985;29;20576;-77
2024/01/08 03:24:38;;;;;;;6.90;3.83;;;;;;;;;;4815676;29;20417;-77
2024/01/08 03:27:04;;;;;;;6.30;3.55;;;;;;;;;;4784193;29;20280;-78
2024/01/08 03:29:31;;;;;;;7.72;4.35;;;;;;;;;;4800946;29;20062;-77
2024/01/08 03:31:57;;;;;;;6.47;3.72;;;;;;;;;;4803085;29;20043;-77
2024/01/08 03:34:24;;;;;;;6.68;4.25;;;;;;;;;;4800843;29;20046;-77
2024/01/08 03:36:50;;;;;;;6.05;3.70;;;;;;;;;;4803956;29;20059;-77
2024/01/08 03:39:17;;;;;;;6.10;4.10;;;;;;;;;;4809755;29;20135;-77
2024/01/08 03:41:43;;;;;;;8.20;4.28;;;;;;;;;;4812278;29;20065;-77
2024/01/08 03:44:10;;;;;;;7.63;4.07;;;;;;;;;;4791625;29;20054;-79
2024/01/08 03:46:37;;;;;;;9.40;4.15;;;;;;;;;;4797595;29;20142;-78
2024/01/08 03:49:04;;;;;;;6.32;3.63;;;;;;;;;;4796123;29;20685;-78
2024/01/08 03:51:30;;;;;;;5.72;3.50;;;;;;;;;;4799129;29;20424;-78
2024/01/08 03:53:57;;;;;;;8.20;3.83;;;;;;;;;;4814523;29;20054;-78
2024/01/08 03:56:24;;;;;;;6.47;3.88;;;;;;;;;;4793570;29;20047;-78
2024/01/08 03:58:51;;;;;;;6.93;3.75;;;;;;;;;;4795425;29;20122;-77
2024/01/08 04:01:17;;;;;;;6.95;4.40;;;;;;;;;;4790297;29;20089;-76
2024/01/08 04:03:44;;;;;;;6.10;3.90;;;;;;;;;;4799046;29;20058;-76
2024/01/08 04:06:10;;;;;;;7.75;4.20;;;;;;;;;;4800227;29;20385;-76
2024/01/08 04:08:37;;;;;;;11.93;5.45;;;;;;;;;;4797080;29;20135;-79
2024/01/08 04:11:04;;;;;;;7.55;3.60;;;;;;;;;;4811047;29;20484;-77
2024/01/08 04:13:30;;;;;;;10.23;5.10;;;;;;;;;;4788563;29;20059;-76
2024/01/08 04:15:57;;;;;;;8.75;4.78;;;;;;;;;;4798071;29;20094;-76
2024/01/08 04:18:23;;;;;;;8.43;5.07;;;;;;;;;;4799735;29;20105;-76
2024/01/08 04:20:50;;;;;;;7.75;4.63;;;;;;;;;;4807879;29;20086;-76
2024/01/08 04:23:17;;;;;;;7.97;4.95;;;;;;;;;;4799697;29;20149;-76
2024/01/08 04:25:43;;;;;;;9.27;4.45;;;;;;;;;;4804192;29;20067;-77
2024/01/08 04:28:10;;;;;;;9.50;4.88;;;;;;;;;;4809931;29;20470;-76
2024/01/08 04:30:36;;;;;;;8.10;4.80;;;;;;;;;;4796631;29;20151;-77
2024/01/08 04:33:03;;;;;;;8.30;4.47;;;;;;;;;;4798682;29;20065;-78
2024/01/08 04:35:29;;;;;;;7.65;4.85;;;;;;;;;;4798950;29;20153;-76
2024/01/08 04:37:56;;;;;;;9.70;5.05;;;;;;;;;;4793206;29;20062;-76
2024/01/08 04:40:23;;;;;;;8.40;4.75;;;;;;;;;;4792579;29;20051;-76
2024/01/08 04:42:49;;;;;;;10.07;5.20;;;;;;;;;;4784311;29;20170;-77
2024/01/08 04:45:17;;;;;;;9.00;5.07;;;;;;;;;;4799891;29;20475;-78
2024/01/08 04:47:43;;;;;;;8.48;4.90;;;;;;;;;;4812750;29;20062;-78
2024/01/08 04:50:10;;;;;;;9.43;5.53;;;;;;;;;;4808129;29;20886;-78
2024/01/08 04:52:36;;;;;;;9.23;5.15;;;;;;;;;;4810573;29;20133;-77
2024/01/08 04:55:03;;;;;;;8.63;5.13;;;;;;;;;;4790068;29;20051;-77
2024/01/08 04:57:30;;;;;;;8.85;4.72;;;;;;;;;;4799392;29;20142;-78
2024/01/08 04:59:56;;;;;;;9.23;5.40;;;;;;;;;;4792108;29;20104;-77
2024/01/08 05:02:23;;;;;;;7.55;4.82;;;;;;;;;;4813225;29;20065;-78
2024/01/08 05:04:49;;;;;;;8.85;5.00;;;;;;;;;;4799298;29;20068;-77
2024/01/08 05:07:16;;;;;;;9.13;5.53;;;;;;;;;;4790045;29;20054;-77
2024/01/08 05:09:42;;;;;;;8.98;5.50;;;;;;;;;;4796051;29;20157;-77
2024/01/08 05:12:09;;;;;;;8.48;5.47;;;;;;;;;;4799536;29;20066;-77
2024/01/08 05:14:35;;;;;;;9.32;5.88;;;;;;;;;;4799426;29;20055;-77
2024/01/08 05:17:03;;;;;;;9.40;5.25;;;;;;;;;;4799409;29;20050;-78
2024/01/08 05:19:29;;;;;;;9.88;5.38;;;;;;;;;;4807727;29;20081;-76
2024/01/08 05:21:56;;;;;;;10.32;5.63;;;;;;;;;;4809490;29;20551;-77
2024/01/08 05:24:22;;;;;;;11.65;5.80;;;;;;;;;;4790330;29;20057;-77
2024/01/08 05:26:48;;;;;;;10.13;5.53;;;;;;;;;;4801399;29;20135;-77
2024/01/08 05:29:15;;;;;;;10.18;5.63;;;;;;;;;;4793411;29;20054;-77
2024/01/08 05:31:42;;;;;;;10.15;5.75;;;;;;;;;;4797703;29;20116;-77
2024/01/08 05:34:10;;;;;;;12.77;5.47;;;;;;;;;;4799401;29;20111;-77
2024/01/08 05:36:40;;;;;;;8.85;5.38;;;;;;;;;;4789203;29;20050;-77
2024/01/08 05:39:06;;;;;;;10.25;6.15;;;;;;;;;;4787039;29;20062;-77
2024/01/08 05:41:34;;;;;;;10.85;5.75;;;;;;;;;;4793256;29;20050;-77
2024/01/08 05:44:00;;;;;;;12.13;6.90;;;;;;;;;;4802990;29;20484;-76
2024/01/08 05:46:27;;;;;;;10.32;5.85;;;;;;;;;;4798756;29;20496;-77
2024/01/08 05:48:53;;;;;;;9.00;4.47;;;;;;;;;;4782295;29;20062;-77
2024/01/08 05:51:20;;;;;;;11.57;5.95;;;;;;;;;;4799078;29;20547;-76
2024/01/08 05:53:47;;;;;;;11.07;6.15;;;;;;;;;;4788723;29;20062;-76
2024/01/08 05:56:13;;;;;;;11.23;6.68;;;;;;;;;;4811827;29;20548;-77
2024/01/08 05:58:40;;;;;;;8.55;5.70;;;;;;;;;;4807613;29;20069;-76
2024/01/08 06:01:06;;;;;;;10.50;5.63;;;;;;;;;;4810748;29;20765;-77
2024/01/08 06:03:33;;;;;;;8.32;5.38;;;;;;;;;;4798552;29;20047;-77
2024/01/08 06:05:59;;;;;;;9.68;5.82;;;;;;;;;;4795504;29;20130;-77
2024/01/08 06:08:26;;;;;;;9.07;5.93;;;;;;;;;;4811437;29;20146;-76
2024/01/08 06:10:52;;;;;;;9.82;5.53;;;;;;;;;;4793320;29;20073;-77
2024/01/08 06:13:19;;;;;;;10.20;5.35;;;;;;;;;;4813202;29;20053;-77
2024/01/08 06:15:45;;;;;;;9.95;5.45;;;;;;;;;;4814915;29;20912;-77
2024/01/08 06:18:12;;;;;;;9.57;5.70;;;;;;;;;;4808235;29;20057;-76
2024/01/08 06:20:38;;;;;;;9.23;5.60;;;;;;;;;;4797423;29;20051;-76
2024/01/08 06:23:05;;;;;;;8.75;5.35;;;;;;;;;;4794761;29;20121;-77
2024/01/08 06:25:32;;;;;;;11.77;5.70;;;;;;;;;;4803384;29;20079;-76
2024/01/08 06:27:58;;;;;;;9.82;5.75;;;;;;;;;;4814697;29;20054;-77
2024/01/08 06:30:25;;;;;;;10.18;5.75;;;;;;;;;;4808947;29;20058;-77
2024/01/08 06:32:51;;;;;;;10.25;5.90;;;;;;;;;;4797079;29;20602;-77
2024/01/08 06:35:18;;;;;;;9.40;5.70;;;;;;;;;;4807323;29;20074;-76
2024/01/08 06:37:45;;;;;;;11.07;6.32;;;;;;;;;;4801919;29;20055;-78
2024/01/08 06:40:12;;;;;;;9.27;5.25;;;;;;;;;;4808359;29;20078;-78
2024/01/08 06:42:38;;;;;;;10.57;5.38;;;;;;;;;;4800391;29;20131;-77
2024/01/08 06:45:24;;;;;;;7.72;4.68;;;;;;;;;;4796834;29;20051;-74
2024/01/08 06:47:51;;;;;;;9.77;5.40;;;;;;;;;;4790369;29;20134;-77
2024/01/08 06:50:18;;;;;;;8.68;5.20;;;;;;;;;;4799116;29;20058;-77
2024/01/08 06:52:45;;;;;;;11.18;5.22;;;;;;;;;;4807529;29;20519;-77
2024/01/08 06:55:14;;;;;;;10.40;5.13;;;;;;;;;;4801077;29;20062;-77
2024/01/08 06:57:41;;;;;;;9.02;5.18;;;;;;;;;;4810270;29;20102;-75
2024/01/08 07:00:08;;;;;;;9.77;5.43;;;;;;;;;;4796756;29;20054;-76
2024/01/08 07:02:35;;;;;;;12.30;5.97;;;;;;;;;;4801596;29;20081;-75
2024/01/08 07:05:02;;;;;;;9.38;4.30;;;;;;;;;;4809270;29;20115;-77
2024/01/08 07:07:29;;;;;;;9.68;5.18;;;;;;;;;;4814451;29;20149;-77
2024/01/08 07:09:55;;;;;;;8.63;4.60;;;;;;;;;;4794539;29;20141;-77
2024/01/08 07:12:22;;;;;;;8.95;4.80;;;;;;;;;;4799362;29;20061;-77
2024/01/08 07:14:48;;;;;;;10.05;5.07;;;;;;;;;;4799585;29;20093;-77
2024/01/08 07:17:15;;;;;;;7.93;4.65;;;;;;;;;;4799095;29;20066;-77
2024/01/08 07:19:41;;;;;;;12.75;4.57;;;;;;;;;;4803280;29;20062;-76
2024/01/08 07:22:08;;;;;;;12.10;4.53;;;;;;;;;;4794001;29;20061;-77
2024/01/08 07:24:34;;;;;;;8.40;4.13;;;;;;;;;;4810519;29;20215;-76
2024/01/08 07:27:01;;;;;;;10.35;4.85;;;;;;;;;;4795694;29;20047;-76
2024/01/08 07:29:27;;;;;;;6.68;4.07;;;;;;;;;;4795930;29;20062;-76
2024/01/08 07:31:54;;;;;;;10.02;5.05;;;;;;;;;;4800491;29;20541;-77
2024/01/08 07:34:20;;;;;;;7.47;4.40;;;;;;;;;;4809278;29;20054;-77
2024/01/08 07:36:47;;;;;;;8.18;4.70;;;;;;;;;;4800295;29;20559;-78
2024/01/08 07:39:14;;;;;;;8.73;4.35;;;;;;;;;;4804974;29;20635;-77
2024/01/08 07:41:41;;;;;;;10.27;5.07;;;;;;;;;;4797571;29;20577;-75
2024/01/08 07:44:08;;;;;;;9.60;4.53;;;;;;;;;;4800906;29;20469;-75
2024/01/08 07:46:35;;;;;;;8.52;4.85;;;;;;;;;;4794033;29;20439;-77
2024/01/08 07:49:02;;;;;;;7.80;4.63;;;;;;;;;;4814041;29;20077;-77
2024/01/08 07:51:28;;;;;;;9.38;4.90;;;;;;;;;;4795178;29;20488;-77
2024/01/08 07:53:58;;;;;;;9.98;4.53;;;;;;;;;;4787314;29;20059;-77
2024/01/08 07:56:25;;;;;;;7.35;3.60;;;;;;;;;;4792166;29;20050;-77
2024/01/08 07:58:53;;;;;;;8.57;4.00;;;;;;;;;;4799299;29;20064;-77
2024/01/08 08:01:19;;;;;;;7.60;4.28;;;;;;;;;;4799988;29;20469;-77
2024/01/08 08:03:46;;;;;;;7.43;4.35;;;;;;;;;;4808966;29;20058;-77
2024/01/08 08:06:13;;;;;;;8.55;5.03;;;;;;;;;;4797492;29;20050;-78
2024/01/08 08:08:39;;;;;;;8.13;4.50;;;;;;;;;;4797659;29;20145;-77
2024/01/08 08:11:07;;;;;;;8.57;4.72;;;;;;;;;;4812985;29;20427;-77
2024/01/08 08:13:34;;;;;;;8.70;4.75;;;;;;;;;;4800107;29;20100;-77
2024/01/08 08:16:00;;;;;;;7.88;4.82;;;;;;;;;;4807991;29;20094;-77
2024/01/08 08:18:27;;;;;;;8.45;4.85;;;;;;;;;;4813848;29;20522;-77
2024/01/08 08:20:53;;;;;;;10.00;5.47;;;;;;;;;;4790440;29;21254;-77
2024/01/08 08:23:20;;;;;;;8.82;4.40;;;;;;;;;;4796382;29;20082;-77
2024/01/08 08:25:46;;;;;;;8.32;4.50;;;;;;;;;;4796169;29;20047;-77
2024/01/08 08:28:13;;;;;;;7.72;5.22;;;;;;;;;;4799032;29;20062;-77
2024/01/08 08:30:39;;;;;;;8.85;5.00;;;;;;;;;;4798438;29;20058;-77
2024/01/08 08:33:06;;;;;;;10.45;4.63;;;;;;;;;;4797801;29;20062;-76
2024/01/08 08:35:34;;;;;;;6.55;4.43;;;;;;;;;;4808985;29;20137;-76
2024/01/08 08:38:01;;;;;;;11.18;5.07;;;;;;;;;;4803914;29;20058;-76
2024/01/08 08:40:28;;;;;;;6.68;4.05;;;;;;;;;;4801004;29;20069;-76
2024/01/08 08:42:54;;;;;;;12.32;4.53;;;;;;;;;;4798437;29;20070;-77
2024/01/08 08:45:21;;;;;;;8.70;4.82;;;;;;;;;;4793308;29;20050;-76
2024/01/08 08:47:48;;;;;;;7.05;4.50;;;;;;;;;;4798130;29;20055;-76
2024/01/08 08:50:15;;;;;;;7.20;4.13;;;;;;;;;;4800601;29;20061;-76
2024/01/08 08:52:43;;;;;;;6.82;4.50;;;;;;;;;;4802729;29;20146;-76
2024/01/08 08:55:12;;;;;;;7.93;4.68;;;;;;;;;;4808382;29;20130;-76
2024/01/08 08:57:39;;;;;;;7.57;4.50;;;;;;;;;;4812359;29;20956;-77
2024/01/08 09:00:09;;;;;;;9.25;5.20;;;;;;;;;;4798899;29;20108;-77
2024/01/08 09:02:36;;;;;;;8.25;5.13;;;;;;;;;;4793204;29;20047;-77
2024/01/08 09:05:05;;;;;;;7.97;5.18;;;;;;;;;;4794562;29;20944;-77
2024/01/08 09:07:32;;;;;;;8.73;5.72;;;;;;;;;;4808117;29;20123;-77
2024/01/08 09:09:58;;;;;;;9.18;4.70;;;;;;;;;;4799051;29;20149;-77
2024/01/08 09:12:26;;;;;;;8.10;4.95;;;;;;;;;;4813039;29;20131;-77
2024/01/08 09:14:53;;;;;;;12.30;5.00;;;;;;;;;;4792867;29;20043;-78
2024/01/08 09:17:20;;;;;;;11.98;5.30;;;;;;;;;;4809170;29;20061;-77
2024/01/08 09:19:49;;;;;;;9.77;5.50;;;;;;;;;;4805737;29;20050;-77
2024/01/08 09:22:19;;;;;;;7.10;4.75;;;;;;;;;;4799399;29;20065;-77
2024/01/08 09:24:46;;;;;;;9.70;5.63;;;;;;;;;;4792765;29;20090;-77
2024/01/08 09:27:13;;;;;;;8.35;4.72;;;;;;;;;;4799364;29;20170;-77
2024/01/08 09:29:40;;;;;;;9.13;5.18;;;;;;;;;;4795194;29;20063;-78
2024/01/08 09:32:06;;;;;;;8.68;5.53;;;;;;;;;;4802704;29;21446;-77
2024/01/08 09:34:33;;;;;;;8.35;4.88;;;;;;;;;;4797929;29;20054;-77
2024/01/08 09:37:01;;;;;;;10.40;5.20;;;;;;;;;;4793367;29;20050;-77
2024/01/08 09:39:27;;;;;;;7.32;4.68;;;;;;;;;;4811892;29;20051;-77
2024/01/08 09:41:54;;;;;;;6.75;4.63;;;;;;;;;;4793993;29;20539;-77
2024/01/08 09:44:21;;;;;;;7.97;4.78;;;;;;;;;;4795185;29;20605;-77
2024/01/08 09:46:50;;;;;;;7.88;4.72;;;;;;;;;;4796648;29;20105;-77
2024/01/08 09:49:19;;;;;;;8.05;4.90;;;;;;;;;;4810938;29;20090;-77
2024/01/08 09:51:46;;;;;;;7.57;4.75;;;;;;;;;;4803718;29;20477;-77
2024/01/08 09:54:12;;;;;;;7.63;4.63;;;;;;;;;;4797813;29;20058;-78
2024/01/08 09:56:39;;;;;;;8.63;4.57;;;;;;;;;;4816483;29;20054;-77
2024/01/08 09:59:05;;;;;;;8.35;5.38;;;;;;;;;;4811115;29;20069;-76
2024/01/08 10:01:32;;;;;;;8.65;4.60;;;;;;;;;;4778179;29;20051;-77
2024/01/08 10:04:00;;;;;;;8.13;4.60;;;;;;;;;;4816383;29;20066;-76
2024/01/08 10:06:28;;;;;;;9.20;4.55;;;;;;;;;;4796635;29;20078;-76
2024/01/08 10:08:55;;;;;;;8.53;4.93;;;;;;;;;;4801891;29;20062;-76
2024/01/08 10:11:22;;;;;;;6.13;4.05;;;;;;;;;;4777894;29;20085;-76
2024/01/08 10:13:50;;;;;;;7.60;4.43;;;;;;;;;;4790536;29;20055;-76
2024/01/08 10:16:16;;;;;;;8.38;4.40;;;;;;;;;;4793640;29;20625;-76
2024/01/08 10:18:47;;;;;;;8.52;5.18;;;;;;;;;;4810520;29;20448;-76
2024/01/08 10:21:15;;;;;;;7.78;5.13;;;;;;;;;;4815718;29;20055;-76
2024/01/08 10:23:42;;;;;;;6.72;4.45;;;;;;;;;;4792934;29;21060;-77
2024/01/08 10:26:10;;;;;;;7.15;4.03;;;;;;;;;;4799596;29;20050;-77
2024/01/08 10:28:37;;;;;;;6.57;4.30;;;;;;;;;;4797129;29;20055;-76
2024/01/08 10:31:05;;;;;;;7.90;4.63;;;;;;;;;;4794900;29;20107;-77
2024/01/08 10:33:32;;;;;;;7.68;4.90;;;;;;;;;;4803524;29;20086;-76
2024/01/08 10:36:00;;;;;;;9.27;4.28;;;;;;;;;;4809895;29;20061;-76
2024/01/08 10:38:30;;;;;;;8.20;5.05;;;;;;;;;;4802108;29;20054;-76
2024/01/08 10:40:57;;;;;;;7.10;4.15;;;;;;;;;;4809359;29;20078;-77
2024/01/08 10:43:24;;;;;;;6.25;4.40;;;;;;;;;;4812646;29;20054;-77
2024/01/08 10:45:54;;;;;;;7.15;4.70;;;;;;;;;;4803639;29;20059;-77
2024/01/08 10:48:28;;;;;;;9.10;5.13;;;;;;;;;;4797298;29;20164;-76
2024/01/08 10:50:55;;;;;;;7.72;4.22;;;;;;;;;;4808690;29;20054;-77
2024/01/08 10:53:30;;;;;;;7.10;4.75;;;;;;;;;;4799272;29;20062;-77
2024/01/08 10:55:58;;;;;;;7.85;4.70;;;;;;;;;;4814262;29;20062;-77
2024/01/08 10:58:30;;;;;;;5.90;4.03;;;;;;;;;;4799973;29;20055;-77
2024/01/08 11:00:56;;;;;;;6.88;4.05;;;;;;;;;;4816640;29;20074;-77
2024/01/08 11:03:23;;;;;;;6.28;4.00;;;;;;;;;;4803259;29;20082;-77
2024/01/08 11:05:51;;;;;;;6.40;4.50;;;;;;;;;;4804424;29;20141;-77
2024/01/08 11:08:20;;;;;;;7.10;4.45;;;;;;;;;;4818855;29;20054;-77
2024/01/08 11:10:46;;;;;;;8.13;4.83;;;;;;;;;;4795689;29;20058;-77
2024/01/08 11:13:14;;;;;;;8.40;4.00;;;;;;;;;;4801906;29;20051;-77
2024/01/08 11:15:43;;;;;;;8.83;4.47;;;;;;;;;;4806474;29;20054;-76
2024/01/08 11:18:22;;;;;;;7.40;4.03;;;;;;;;;;4790024;29;20766;-77
2024/01/08 11:20:50;;;;;;;6.32;3.97;;;;;;;;;;4818138;29;20051;-77
2024/01/08 11:23:37;;;;;;;6.20;4.28;;;;;;;;;;4798587;29;20077;-77
2024/01/08 11:26:18;;;;;;;6.20;4.00;;;;;;;;;;4799414;29;20082;-78
2024/01/08 11:28:59;;;;;;;7.35;4.22;;;;;;;;;;4812860;29;20055;-77
2024/01/08 11:31:29;;;;;;;7.97;4.32;;;;;;;;;;4804183;29;20054;-77
2024/01/08 11:34:14;;;;;;;5.45;2.92;;;;;;;;;;4800113;29;20073;-78
2024/01/08 11:36:41;;;;;;;6.20;3.55;;;;;;;;;;4801155;29;20078;-78
2024/01/08 11:39:12;;;;;;;6.30;3.75;;;;;;;;;;4795201;29;20474;-78
2024/01/08 11:41:40;;;;;;;5.35;3.53;;;;;;;;;;4793282;29;20066;-78
2024/01/08 11:44:07;;;;;;;8.13;3.58;;;;;;;;;;4801489;29;20062;-78
2024/01/08 11:46:34;;;;;;;6.55;3.80;;;;;;;;;;4795418;29;20067;-77
2024/01/08 11:49:02;;;;;;;5.53;3.53;;;;;;;;;;4800866;29;20069;-78
2024/01/08 11:51:30;;;;;;;5.68;3.42;;;;;;;;;;4793493;29;20428;-77
2024/01/08 11:53:58;;;;;;;5.53;3.03;;;;;;;;;;4808894;29;20645;-78
2024/01/08 11:56:25;;;;;;;5.45;2.88;;;;;;;;;;4813894;29;20063;-78
2024/01/08 11:58:51;;;;;;;4.70;3.28;;;;;;;;;;4793394;29;20088;-78
2024/01/08 12:01:18;;;;;;;6.10;3.03;;;;;;;;;;4800479;29;20475;-78
2024/01/08 12:03:45;;;;;;;6.40;3.38;;;;;;;;;;4795521;29;20145;-76
2024/01/08 12:06:12;;;;;;;5.35;3.13;;;;;;;;;;4795687;29;20043;-78
2024/01/08 12:08:38;;;;;;;4.65;2.97;;;;;;;;;;4795745;29;20424;-77
2024/01/08 12:11:05;;;;;;;4.57;2.90;;;;;;;;;;4807250;29;20677;-79
2024/01/08 12:13:32;;;;;;;5.25;3.10;;;;;;;;;;4800234;29;20062;-79
2024/01/08 12:16:00;;;;;;;4.68;2.80;;;;;;;;;;4795546;29;20129;-78
2024/01/08 12:18:26;;;;;;;4.57;2.22;;;;;;;;;;4801003;29;20058;-78
2024/01/08 12:20:53;;;;;;;3.75;2.42;;;;;;;;;;4809350;29;20058;-78
2024/01/08 12:23:20;;;;;;;5.57;2.60;;;;;;;;;;4795589;29;20218;-78
2024/01/08 12:25:49;;;;;;;4.57;2.45;;;;;;;;;;4814796;29;20050;-78
2024/01/08 12:28:16;;;;;;;4.00;2.70;;;;;;;;;;4795390;29;20545;-77
2024/01/08 12:30:44;;;;;;;6.43;2.90;;;;;;;;;;4798262;29;20054;-76
2024/01/08 12:33:11;;;;;;;5.57;3.13;;;;;;;;;;4794559;29;20477;-77
2024/01/08 12:35:38;;;;;;;7.00;2.45;;;;;;;;;;4799256;29;20075;-76
2024/01/08 12:38:05;;;;;;;4.18;2.17;;;;;;;;;;4799404;29;20166;-76
2024/01/08 12:40:32;;;;;;;4.13;2.58;;;;;;;;;;4798910;29;20355;-76
2024/01/08 12:42:59;;;;;;;3.95;2.30;;;;;;;;;;4813519;29;20050;-76
2024/01/08 12:45:25;;;;;;;4.28;2.15;;;;;;;;;;4792098;29;20050;-76
2024/01/08 12:47:52;;;;;;;5.60;2.60;;;;;;;;;;4796661;29;20088;-76
2024/01/08 12:50:18;;;;;;;4.25;2.22;;;;;;;;;;4798217;29;20525;-76
2024/01/08 12:52:45;;;;;;;4.68;2.67;;;;;;;;;;4808455;29;20054;-77
2024/01/08 12:55:12;;;;;;;4.15;2.10;;;;;;;;;;4813103;29;20050;-76
2024/01/08 12:57:38;;;;;;;3.15;2.05;;;;;;;;;;4808696;29;20151;-76
2024/01/08 13:00:05;;;;;;;3.97;2.35;;;;;;;;;;4809265;29;20116;-76
2024/01/08 13:02:32;;;;;;;3.05;1.90;;;;;;;;;;4792780;29;20086;-76
2024/01/08 13:05:01;;;;;;;4.50;2.50;;;;;;;;;;4798202;29;20046;-76
2024/01/08 13:07:28;;;;;;;4.07;2.27;;;;;;;;;;4812423;29;20066;-76
2024/01/08 13:09:54;;;;;;;3.65;2.30;;;;;;;;;;4791643;29;20058;-77
2024/01/08 13:12:21;;;;;;;4.22;2.40;;;;;;;;;;4799282;29;20070;-77
2024/01/08 13:14:47;;;;;;;4.32;2.20;;;;;;;;;;4801108;29;20065;-77
2024/01/08 13:17:16;;;;;;;7.20;2.35;;;;;;;;;;4802012;29;20561;-75
2024/01/08 13:19:42;;;;;;;4.55;2.40;;;;;;;;;;4791316;29;20070;-77
2024/01/08 13:22:10;;;;;;;4.50;2.53;;;;;;;;;;4796543;29;20050;-75
2024/01/08 13:24:38;;;;;;;4.47;2.47;;;;;;;;;;4805445;29;20061;-76
2024/01/08 13:27:11;;;;;;;4.53;2.90;;;;;;;;;;4799374;29;20085;-75
2024/01/08 13:29:38;;;;;;;3.88;2.35;;;;;;;;;;4801193;29;20786;-76
2024/01/08 13:32:07;;;;;;;4.72;2.50;;;;;;;;;;4810122;29;22202;-76
2024/01/08 13:34:33;;;;;;;4.13;2.63;;;;;;;;;;4810670;29;20058;-77
2024/01/08 13:37:00;;;;;;;5.78;3.08;;;;;;;;;;4811409;29;20055;-77
2024/01/08 13:39:27;;;;;;;5.40;2.70;;;;;;;;;;4813339;29;20436;-78
2024/01/08 13:41:53;;;;;;;4.85;2.70;;;;;;;;;;4801275;29;20504;-78
2024/01/08 13:44:20;;;;;;;7.38;2.80;;;;;;;;;;4799862;29;20082;-77
2024/01/08 13:46:47;;;;;;;7.88;3.00;;;;;;;;;;4804713;29;20932;-78
2024/01/08 13:49:16;;;;;;;9.07;3.05;;;;;;;;;;4803071;29;20059;-78
2024/01/08 13:51:43;;;;;;;4.22;2.60;;;;;;;;;;4816567;29;20055;-78
2024/01/08 13:54:09;;;;;;;4.30;2.75;;;;;;;;;;4795957;29;20054;-77
2024/01/08 13:56:36;;;;;;;4.57;2.55;;;;;;;;;;4795577;29;20058;-77
2024/01/08 13:59:05;;;;;;;4.47;2.55;;;;;;;;;;4806951;29;20070;-78
2024/01/08 14:01:32;;;;;;;5.38;2.65;;;;;;;;;;4813967;29;20051;-75
2024/01/08 14:03:58;;;;;;;4.22;2.30;;;;;;;;;;4804073;29;20063;-75
2024/01/08 14:06:25;;;;;;;4.88;2.50;;;;;;;;;;4804141;29;20207;-76
2024/01/08 14:08:51;;;;;;;5.05;2.30;;;;;;;;;;4796217;29;20082;-75
2024/01/08 14:11:18;;;;;;;4.80;2.40;;;;;;;;;;4814256;29;20145;-75
2024/01/08 14:13:45;;;;;;;4.60;2.70;;;;;;;;;;4798729;29;20523;-76
2024/01/08 14:16:11;;;;;;;4.95;3.13;;;;;;;;;;4804391;29;20148;-75
2024/01/08 14:18:39;;;;;;;5.20;2.10;;;;;;;;;;4800318;29;20063;-78
2024/01/08 14:21:07;;;;;;;4.78;2.45;;;;;;;;;;4817707;29;20196;-77
2024/01/08 14:23:34;;;;;;;4.72;2.38;;;;;;;;;;4801278;29;20054;-77
2024/01/08 14:26:02;;;;;;;3.78;2.28;;;;;;;;;;4796101;29;20047;-78
2024/01/08 14:28:29;;;;;;;4.70;2.40;;;;;;;;;;4804481;29;20062;-77
2024/01/08 14:30:55;;;;;;;4.03;2.45;;;;;;;;;;4799408;29;20484;-78
2024/01/08 14:33:22;;;;;;;3.55;2.10;;;;;;;;;;4815395;29;20062;-77
2024/01/08 14:35:49;;;;;;;4.35;2.15;;;;;;;;;;4801403;29;20065;-77
2024/01/08 14:38:16;;;;;;;3.67;2.40;;;;;;;;;;4794200;29;20062;-77
2024/01/08 14:40:44;;;;;;;4.18;2.53;;;;;;;;;;4797824;29;20454;-77